Pasadena, TX (77504)

8:53 PM CDT on September 01, 2015 (GMT -0500)
Preston Trail South | | Change Station
CLOSE
Current Station
Personal Weather Station
Location: Pasadena, TX
Elevation: 39 ft
Nearby Weather Stations

Elev 39 ft 29.64 °N, 95.17 °W | Updated 4 seconds ago

Mostly Cloudy
Mostly Cloudy
76.6 °F
Feels Like 78 °F
N
0.0
Wind Variable Wind from WNW
Gusts 0.0 mph

Today
High -- | Low -- °F
--% Chance of Precip.
Yesterday
High -- | Low -- °F
Precip. -- in
6:57 AM 7:43 PM
Waning Gibbous, 84% visible
Pressure 30.01 in
Visibility 10.0 miles
Clouds Few 2000 ft
Mostly Cloudy 12000 ft
Mostly Cloudy 25000 ft
Heat Index 78 °F
Dew Point 71 °F
Humidity 84%
Rainfall 0.18 in
Snow Depth Not available.
UV 0 out of 12
Pollen 5.50 out of 12
Air Quality Not available.
Flu Activity Not available.
METAR KEFD 020050Z 04003KT 10SM FEW020 BKN120 BKN250 25/23 A3001
Pressure 30.01 in
Visibility 10.0 miles
Clouds Few 2000 ft
Mostly Cloudy 12000 ft
Mostly Cloudy 25000 ft
Heat Index 78 °F
Dew Point 71 °F
Humidity 84%
Rainfall 0.18 in
Snow Depth Not available.
UV 0 out of 12
Pollen 5.50 out of 12
Air Quality Not available.
Flu Activity Not available.
METAR KEFD 020050Z 04003KT 10SM FEW020 BKN120 BKN250 25/23 A3001

10-Day Weather Forecast

×

Almanac

Astronomy

Sep. 01, 2015 Rise Set
Actual Time
Civil Twilight
Nautical Twilight
Astronomical Twilight
Moon
Length of Visible Light
Length of Day
Tomorrow will be .
, % of the Moon is Illuminated

Today's Extremes

State Highs State Lows

Community

WunderPhotos

Upload Photos

1,851,673 photos uploaded!

WunderBlogs® & News

Nearby

Air Quality

  Air Quality AQ Index Pollutant
Not available.

Snow Depth

Station Depth Elevation

Earthquake Activity

City Distance Mag. Time & Date
Minimum magnitude displayed is 2.5.

Coastal Water Temperatures

Place Temperature

Stations

Nearby Weather Stations

Station Location Temp. Windchill Dew Point Humidity Wind Precip. Elev Updated Type